sensor_id;sensor_type;location;lat;lon;timestamp;temperature;humidity
2899;DHT22;1459;50.864;6.438;2022-07-23T00:00:20;17.90;99.90
2899;DHT22;1459;50.864;6.438;2022-07-23T00:02:49;18.00;99.90
2899;DHT22;1459;50.864;6.438;2022-07-23T00:05:19;18.00;99.90
2899;DHT22;1459;50.864;6.438;2022-07-23T00:07:46;18.00;99.90
2899;DHT22;1459;50.864;6.438;2022-07-23T00:10:15;18.00;99.90
2899;DHT22;1459;50.864;6.438;2022-07-23T00:12:42;17.90;99.90
2899;DHT22;1459;50.864;6.438;2022-07-23T00:15:10;17.90;99.90
2899;DHT22;1459;50.864;6.438;2022-07-23T00:17:39;17.90;99.90
2899;DHT22;1459;50.864;6.438;2022-07-23T00:20:08;17.90;99.90
2899;DHT22;1459;50.864;6.438;2022-07-23T00:22:35;17.90;99.90
2899;DHT22;1459;50.864;6.438;2022-07-23T00:25:02;17.90;99.90
2899;DHT22;1459;50.864;6.438;2022-07-23T00:27:29;17.90;99.90
2899;DHT22;1459;50.864;6.438;2022-07-23T00:29:56;17.90;99.90
2899;DHT22;1459;50.864;6.438;2022-07-23T00:32:23;17.90;99.90
2899;DHT22;1459;50.864;6.438;2022-07-23T00:34:51;17.90;99.90
2899;DHT22;1459;50.864;6.438;2022-07-23T00:37:19;17.90;99.90
2899;DHT22;1459;50.864;6.438;2022-07-23T00:39:46;17.90;99.90
2899;DHT22;1459;50.864;6.438;2022-07-23T00:42:13;17.90;99.90
2899;DHT22;1459;50.864;6.438;2022-07-23T00:44:40;17.90;99.90
2899;DHT22;1459;50.864;6.438;2022-07-23T00:47:07;17.90;99.90
2899;DHT22;1459;50.864;6.438;2022-07-23T00:49:34;17.90;99.90
2899;DHT22;1459;50.864;6.438;2022-07-23T00:52:02;17.90;99.90
2899;DHT22;1459;50.864;6.438;2022-07-23T00:54:31;17.90;99.90
2899;DHT22;1459;50.864;6.438;2022-07-23T00:56:58;17.90;99.90
2899;DHT22;1459;50.864;6.438;2022-07-23T00:59:25;17.90;99.90
2899;DHT22;1459;50.864;6.438;2022-07-23T01:01:52;18.00;99.90
2899;DHT22;1459;50.864;6.438;2022-07-23T01:04:19;18.00;99.90
2899;DHT22;1459;50.864;6.438;2022-07-23T01:06:46;18.00;99.90
2899;DHT22;1459;50.864;6.438;2022-07-23T01:09:13;17.90;99.90
2899;DHT22;1459;50.864;6.438;2022-07-23T01:11:42;17.80;99.90
2899;DHT22;1459;50.864;6.438;2022-07-23T01:14:13;17.80;99.90
2899;DHT22;1459;50.864;6.438;2022-07-23T01:16:41;17.70;99.90
2899;DHT22;1459;50.864;6.438;2022-07-23T01:19:09;17.60;99.90
2899;DHT22;1459;50.864;6.438;2022-07-23T01:21:38;17.60;99.90
2899;DHT22;1459;50.864;6.438;2022-07-23T01:24:07;17.50;99.90
2899;DHT22;1459;50.864;6.438;2022-07-23T01:26:35;17.50;99.90
2899;DHT22;1459;50.864;6.438;2022-07-23T01:29:03;17.50;99.90
2899;DHT22;1459;50.864;6.438;2022-07-23T01:31:30;17.40;99.90
2899;DHT22;1459;50.864;6.438;2022-07-23T01:33:58;17.40;99.90
2899;DHT22;1459;50.864;6.438;2022-07-23T01:36:25;17.30;99.90
2899;DHT22;1459;50.864;6.438;2022-07-23T01:38:52;17.30;99.90
2899;DHT22;1459;50.864;6.438;2022-07-23T01:41:20;17.30;99.90
2899;DHT22;1459;50.864;6.438;2022-07-23T01:43:47;17.20;99.90
2899;DHT22;1459;50.864;6.438;2022-07-23T01:46:14;17.20;99.90
2899;DHT22;1459;50.864;6.438;2022-07-23T01:48:41;17.10;99.90
2899;DHT22;1459;50.864;6.438;2022-07-23T01:51:08;17.10;99.90
2899;DHT22;1459;50.864;6.438;2022-07-23T01:53:36;17.10;99.90
2899;DHT22;1459;50.864;6.438;2022-07-23T01:56:03;17.10;99.90
2899;DHT22;1459;50.864;6.438;2022-07-23T01:58:32;17.00;99.90
2899;DHT22;1459;50.864;6.438;2022-07-23T02:00:59;17.00;99.90
2899;DHT22;1459;50.864;6.438;2022-07-23T02:03:26;17.00;99.90
2899;DHT22;1459;50.864;6.438;2022-07-23T02:05:53;16.90;99.90
2899;DHT22;1459;50.864;6.438;2022-07-23T02:08:20;16.90;99.90
2899;DHT22;1459;50.864;6.438;2022-07-23T02:10:48;16.90;99.90
2899;DHT22;1459;50.864;6.438;2022-07-23T02:13:17;16.90;99.90
2899;DHT22;1459;50.864;6.438;2022-07-23T02:15:45;16.90;99.90
2899;DHT22;1459;50.864;6.438;2022-07-23T02:18:13;16.80;99.90
2899;DHT22;1459;50.864;6.438;2022-07-23T02:20:40;16.80;99.90
2899;DHT22;1459;50.864;6.438;2022-07-23T02:23:07;16.80;99.90
2899;DHT22;1459;50.864;6.438;2022-07-23T02:25:34;16.70;99.90
2899;DHT22;1459;50.864;6.438;2022-07-23T02:28:01;16.70;99.90
2899;DHT22;1459;50.864;6.438;2022-07-23T02:30:29;16.60;99.90
2899;DHT22;1459;50.864;6.438;2022-07-23T02:32:57;16.60;99.90
2899;DHT22;1459;50.864;6.438;2022-07-23T02:35:24;16.50;99.90
2899;DHT22;1459;50.864;6.438;2022-07-23T02:37:51;16.50;99.90
2899;DHT22;1459;50.864;6.438;2022-07-23T02:40:19;16.50;99.90
2899;DHT22;1459;50.864;6.438;2022-07-23T02:42:46;16.40;99.90
2899;DHT22;1459;50.864;6.438;2022-07-23T02:45:13;16.50;99.90
2899;DHT22;1459;50.864;6.438;2022-07-23T02:47:40;16.50;99.90
2899;DHT22;1459;50.864;6.438;2022-07-23T02:50:09;16.50;99.90
2899;DHT22;1459;50.864;6.438;2022-07-23T02:52:37;16.50;99.90
2899;DHT22;1459;50.864;6.438;2022-07-23T02:55:07;16.50;99.90
2899;DHT22;1459;50.864;6.438;2022-07-23T02:57:34;16.40;99.90
2899;DHT22;1459;50.864;6.438;2022-07-23T03:00:02;16.40;99.90
2899;DHT22;1459;50.864;6.438;2022-07-23T03:02:30;16.30;99.90
2899;DHT22;1459;50.864;6.438;2022-07-23T03:04:57;16.40;99.90
2899;DHT22;1459;50.864;6.438;2022-07-23T03:07:25;16.30;99.90
2899;DHT22;1459;50.864;6.438;2022-07-23T03:09:54;16.30;99.90
2899;DHT22;1459;50.864;6.438;2022-07-23T03:12:21;16.20;99.90
2899;DHT22;1459;50.864;6.438;2022-07-23T03:14:48;16.20;99.90
2899;DHT22;1459;50.864;6.438;2022-07-23T03:17:15;16.20;99.90
2899;DHT22;1459;50.864;6.438;2022-07-23T03:19:42;16.10;99.90
2899;DHT22;1459;50.864;6.438;2022-07-23T03:22:09;16.10;99.90
2899;DHT22;1459;50.864;6.438;2022-07-23T03:24:38;16.00;99.90
2899;DHT22;1459;50.864;6.438;2022-07-23T03:27:24;16.00;99.90
2899;DHT22;1459;50.864;6.438;2022-07-23T03:29:52;16.00;99.90
2899;DHT22;1459;50.864;6.438;2022-07-23T03:32:19;15.90;99.90
2899;DHT22;1459;50.864;6.438;2022-07-23T03:34:46;15.90;99.90
2899;DHT22;1459;50.864;6.438;2022-07-23T03:37:13;15.80;99.90
2899;DHT22;1459;50.864;6.438;2022-07-23T03:39:42;15.80;99.90
2899;DHT22;1459;50.864;6.438;2022-07-23T03:42:09;15.80;99.90
2899;DHT22;1459;50.864;6.438;2022-07-23T03:44:36;15.70;99.90
2899;DHT22;1459;50.864;6.438;2022-07-23T03:47:04;15.80;99.90
2899;DHT22;1459;50.864;6.438;2022-07-23T03:49:34;15.80;99.90
2899;DHT22;1459;50.864;6.438;2022-07-23T03:52:01;15.80;99.90
2899;DHT22;1459;50.864;6.438;2022-07-23T03:54:31;15.80;99.90
2899;DHT22;1459;50.864;6.438;2022-07-23T03:56:59;15.80;99.90
2899;DHT22;1459;50.864;6.438;2022-07-23T03:59:26;15.80;99.90
2899;DHT22;1459;50.864;6.438;2022-07-23T04:01:53;15.80;99.90
2899;DHT22;1459;50.864;6.438;2022-07-23T04:04:20;15.80;99.90
2899;DHT22;1459;50.864;6.438;2022-07-23T04:06:47;15.80;99.90
2899;DHT22;1459;50.864;6.438;2022-07-23T04:09:17;15.80;99.90
2899;DHT22;1459;50.864;6.438;2022-07-23T04:11:44;15.80;99.90
2899;DHT22;1459;50.864;6.438;2022-07-23T04:14:12;15.80;99.90
2899;DHT22;1459;50.864;6.438;2022-07-23T04:16:39;15.70;99.90
2899;DHT22;1459;50.864;6.438;2022-07-23T04:19:06;15.70;99.90
2899;DHT22;1459;50.864;6.438;2022-07-23T04:21:33;15.70;99.90
2899;DHT22;1459;50.864;6.438;2022-07-23T04:24:00;15.70;99.90
2899;DHT22;1459;50.864;6.438;2022-07-23T04:26:27;15.80;99.90
2899;DHT22;1459;50.864;6.438;2022-07-23T04:28:54;15.80;99.90
2899;DHT22;1459;50.864;6.438;2022-07-23T04:31:23;15.80;99.90
2899;DHT22;1459;50.864;6.438;2022-07-23T04:33:50;15.80;99.90
2899;DHT22;1459;50.864;6.438;2022-07-23T04:36:17;15.90;99.90
2899;DHT22;1459;50.864;6.438;2022-07-23T04:38:44;16.00;99.90
2899;DHT22;1459;50.864;6.438;2022-07-23T04:41:11;16.00;99.90
2899;DHT22;1459;50.864;6.438;2022-07-23T04:43:38;16.10;99.90
2899;DHT22;1459;50.864;6.438;2022-07-23T04:46:05;16.10;99.90
2899;DHT22;1459;50.864;6.438;2022-07-23T04:48:33;16.20;99.90
2899;DHT22;1459;50.864;6.438;2022-07-23T04:51:00;16.20;99.90
2899;DHT22;1459;50.864;6.438;2022-07-23T04:53:28;16.30;99.90
2899;DHT22;1459;50.864;6.438;2022-07-23T04:55:55;16.30;99.90
2899;DHT22;1459;50.864;6.438;2022-07-23T04:58:22;16.40;99.90
2899;DHT22;1459;50.864;6.438;2022-07-23T05:00:49;16.40;99.90
2899;DHT22;1459;50.864;6.438;2022-07-23T05:03:16;16.50;99.90
2899;DHT22;1459;50.864;6.438;2022-07-23T05:05:45;16.50;99.90
2899;DHT22;1459;50.864;6.438;2022-07-23T05:08:12;16.60;99.90
2899;DHT22;1459;50.864;6.438;2022-07-23T05:10:39;16.70;99.90
2899;DHT22;1459;50.864;6.438;2022-07-23T05:13:06;16.90;99.90
2899;DHT22;1459;50.864;6.438;2022-07-23T05:15:33;17.00;99.90
2899;DHT22;1459;50.864;6.438;2022-07-23T05:18:00;17.00;99.90
2899;DHT22;1459;50.864;6.438;2022-07-23T05:20:27;17.10;99.90
2899;DHT22;1459;50.864;6.438;2022-07-23T05:22:55;17.10;99.90
2899;DHT22;1459;50.864;6.438;2022-07-23T05:25:22;17.30;99.90
2899;DHT22;1459;50.864;6.438;2022-07-23T05:27:49;17.30;99.90
2899;DHT22;1459;50.864;6.438;2022-07-23T05:30:16;17.40;99.90
2899;DHT22;1459;50.864;6.438;2022-07-23T05:32:43;17.50;99.90
2899;DHT22;1459;50.864;6.438;2022-07-23T05:35:10;17.50;99.90
2899;DHT22;1459;50.864;6.438;2022-07-23T05:37:37;17.60;99.90
2899;DHT22;1459;50.864;6.438;2022-07-23T05:40:09;17.60;99.90
2899;DHT22;1459;50.864;6.438;2022-07-23T05:42:36;17.60;99.90
2899;DHT22;1459;50.864;6.438;2022-07-23T05:45:05;17.60;99.90
2899;DHT22;1459;50.864;6.438;2022-07-23T05:47:39;17.60;99.90
2899;DHT22;1459;50.864;6.438;2022-07-23T05:50:07;17.70;99.90
2899;DHT22;1459;50.864;6.438;2022-07-23T05:52:34;17.70;99.90
2899;DHT22;1459;50.864;6.438;2022-07-23T05:55:01;17.70;99.90
2899;DHT22;1459;50.864;6.438;2022-07-23T05:57:29;17.80;99.90
2899;DHT22;1459;50.864;6.438;2022-07-23T05:59:56;17.90;99.90
2899;DHT22;1459;50.864;6.438;2022-07-23T06:02:23;17.90;99.90
2899;DHT22;1459;50.864;6.438;2022-07-23T06:04:50;17.90;99.90
2899;DHT22;1459;50.864;6.438;2022-07-23T06:07:18;17.80;99.90
2899;DHT22;1459;50.864;6.438;2022-07-23T06:09:45;17.80;99.90
2899;DHT22;1459;50.864;6.438;2022-07-23T06:14:41;18.00;99.90
2899;DHT22;1459;50.864;6.438;2022-07-23T06:17:08;18.10;99.90
2899;DHT22;1459;50.864;6.438;2022-07-23T06:19:35;18.20;99.90
2899;DHT22;1459;50.864;6.438;2022-07-23T06:22:02;18.20;99.90
2899;DHT22;1459;50.864;6.438;2022-07-23T06:24:29;18.30;99.90
2899;DHT22;1459;50.864;6.438;2022-07-23T06:26:56;18.30;99.90
2899;DHT22;1459;50.864;6.438;2022-07-23T06:31:51;18.50;99.90
2899;DHT22;1459;50.864;6.438;2022-07-23T06:34:18;18.60;99.90
2899;DHT22;1459;50.864;6.438;2022-07-23T06:36:45;18.70;99.90
2899;DHT22;1459;50.864;6.438;2022-07-23T06:39:12;18.80;99.90
2899;DHT22;1459;50.864;6.438;2022-07-23T06:41:39;18.80;99.90
2899;DHT22;1459;50.864;6.438;2022-07-23T06:44:07;18.70;99.90
2899;DHT22;1459;50.864;6.438;2022-07-23T06:46:34;18.70;99.90
2899;DHT22;1459;50.864;6.438;2022-07-23T06:49:03;18.70;99.90
2899;DHT22;1459;50.864;6.438;2022-07-23T06:51:30;18.70;99.90
2899;DHT22;1459;50.864;6.438;2022-07-23T06:53:57;18.80;99.90
2899;DHT22;1459;50.864;6.438;2022-07-23T06:56:25;19.00;99.90
2899;DHT22;1459;50.864;6.438;2022-07-23T06:58:52;19.00;99.90
2899;DHT22;1459;50.864;6.438;2022-07-23T07:01:19;18.80;99.90
2899;DHT22;1459;50.864;6.438;2022-07-23T07:03:47;18.80;99.90
2899;DHT22;1459;50.864;6.438;2022-07-23T07:06:15;18.70;99.90
2899;DHT22;1459;50.864;6.438;2022-07-23T07:08:42;18.70;99.90
2899;DHT22;1459;50.864;6.438;2022-07-23T07:11:09;18.70;99.90
2899;DHT22;1459;50.864;6.438;2022-07-23T07:13:37;18.70;99.90
2899;DHT22;1459;50.864;6.438;2022-07-23T07:16:04;18.70;99.90
2899;DHT22;1459;50.864;6.438;2022-07-23T07:18:31;18.80;99.90
2899;DHT22;1459;50.864;6.438;2022-07-23T07:20:58;18.80;99.90
2899;DHT22;1459;50.864;6.438;2022-07-23T07:23:27;18.90;99.90
2899;DHT22;1459;50.864;6.438;2022-07-23T07:25:54;19.10;99.90
2899;DHT22;1459;50.864;6.438;2022-07-23T07:28:21;19.30;99.90
2899;DHT22;1459;50.864;6.438;2022-07-23T07:30:48;19.50;99.90
2899;DHT22;1459;50.864;6.438;2022-07-23T07:33:15;19.60;99.90
2899;DHT22;1459;50.864;6.438;2022-07-23T07:35:42;19.60;99.90
2899;DHT22;1459;50.864;6.438;2022-07-23T07:38:09;19.70;99.90
2899;DHT22;1459;50.864;6.438;2022-07-23T07:40:37;19.50;99.90
2899;DHT22;1459;50.864;6.438;2022-07-23T07:43:04;19.50;99.90
2899;DHT22;1459;50.864;6.438;2022-07-23T07:45:31;19.40;99.90
2899;DHT22;1459;50.864;6.438;2022-07-23T07:47:58;19.40;99.90
2899;DHT22;1459;50.864;6.438;2022-07-23T07:50:25;19.20;99.90
2899;DHT22;1459;50.864;6.438;2022-07-23T07:52:52;19.10;99.90
2899;DHT22;1459;50.864;6.438;2022-07-23T07:55:19;19.00;99.90
2899;DHT22;1459;50.864;6.438;2022-07-23T07:57:48;19.00;99.90
2899;DHT22;1459;50.864;6.438;2022-07-23T08:00:15;19.00;99.90
2899;DHT22;1459;50.864;6.438;2022-07-23T08:02:43;19.10;99.90
2899;DHT22;1459;50.864;6.438;2022-07-23T08:05:11;19.20;99.90
2899;DHT22;1459;50.864;6.438;2022-07-23T08:07:39;19.20;99.90
2899;DHT22;1459;50.864;6.438;2022-07-23T08:10:07;19.20;99.90
2899;DHT22;1459;50.864;6.438;2022-07-23T08:12:43;19.30;99.90
2899;DHT22;1459;50.864;6.438;2022-07-23T08:15:13;19.40;99.90
2899;DHT22;1459;50.864;6.438;2022-07-23T08:17:41;19.50;99.90
2899;DHT22;1459;50.864;6.438;2022-07-23T08:20:10;19.70;99.90
2899;DHT22;1459;50.864;6.438;2022-07-23T08:22:45;19.80;99.90
2899;DHT22;1459;50.864;6.438;2022-07-23T08:25:13;20.00;99.90
2899;DHT22;1459;50.864;6.438;2022-07-23T08:27:40;20.20;99.90
2899;DHT22;1459;50.864;6.438;2022-07-23T08:30:08;20.20;99.90
2899;DHT22;1459;50.864;6.438;2022-07-23T08:32:50;20.20;99.90
2899;DHT22;1459;50.864;6.438;2022-07-23T08:35:17;20.20;99.90
2899;DHT22;1459;50.864;6.438;2022-07-23T08:37:44;20.30;99.90
2899;DHT22;1459;50.864;6.438;2022-07-23T08:40:13;20.40;99.90
2899;DHT22;1459;50.864;6.438;2022-07-23T08:42:40;20.50;99.90
2899;DHT22;1459;50.864;6.438;2022-07-23T08:45:08;20.40;99.90
2899;DHT22;1459;50.864;6.438;2022-07-23T08:47:37;20.30;99.90
2899;DHT22;1459;50.864;6.438;2022-07-23T08:50:07;20.30;99.90
2899;DHT22;1459;50.864;6.438;2022-07-23T08:52:36;20.40;99.90
2899;DHT22;1459;50.864;6.438;2022-07-23T08:55:05;20.40;99.90
2899;DHT22;1459;50.864;6.438;2022-07-23T08:57:32;20.50;99.90
2899;DHT22;1459;50.864;6.438;2022-07-23T08:59:59;20.50;99.90
2899;DHT22;1459;50.864;6.438;2022-07-23T09:02:26;20.50;99.90
2899;DHT22;1459;50.864;6.438;2022-07-23T09:04:53;20.50;99.90
2899;DHT22;1459;50.864;6.438;2022-07-23T09:07:21;20.60;99.90
2899;DHT22;1459;50.864;6.438;2022-07-23T09:10:05;20.60;99.90
2899;DHT22;1459;50.864;6.438;2022-07-23T09:12:32;20.70;99.90
2899;DHT22;1459;50.864;6.438;2022-07-23T09:15:04;20.70;99.90
2899;DHT22;1459;50.864;6.438;2022-07-23T09:17:37;20.80;99.90
2899;DHT22;1459;50.864;6.438;2022-07-23T09:20:09;20.80;99.90
2899;DHT22;1459;50.864;6.438;2022-07-23T09:22:38;20.80;99.90
2899;DHT22;1459;50.864;6.438;2022-07-23T09:25:09;20.80;99.90
2899;DHT22;1459;50.864;6.438;2022-07-23T09:28:01;20.90;99.90
2899;DHT22;1459;50.864;6.438;2022-07-23T09:30:30;21.00;99.90
2899;DHT22;1459;50.864;6.438;2022-07-23T09:33:06;21.00;99.90
2899;DHT22;1459;50.864;6.438;2022-07-23T09:35:47;21.10;99.90
2899;DHT22;1459;50.864;6.438;2022-07-23T09:40:44;21.20;99.90
2899;DHT22;1459;50.864;6.438;2022-07-23T09:43:12;21.30;99.90
2899;DHT22;1459;50.864;6.438;2022-07-23T09:45:39;21.50;99.90
2899;DHT22;1459;50.864;6.438;2022-07-23T09:48:14;21.60;99.90
2899;DHT22;1459;50.864;6.438;2022-07-23T09:50:43;21.60;99.90
2899;DHT22;1459;50.864;6.438;2022-07-23T09:53:25;21.60;99.90
2899;DHT22;1459;50.864;6.438;2022-07-23T09:55:54;21.50;99.90
2899;DHT22;1459;50.864;6.438;2022-07-23T09:58:25;21.50;99.90
2899;DHT22;1459;50.864;6.438;2022-07-23T10:00:53;21.40;99.90
2899;DHT22;1459;50.864;6.438;2022-07-23T10:03:20;21.40;99.90
2899;DHT22;1459;50.864;6.438;2022-07-23T10:05:48;21.40;99.90
2899;DHT22;1459;50.864;6.438;2022-07-23T10:08:19;21.50;99.90
2899;DHT22;1459;50.864;6.438;2022-07-23T10:10:47;21.50;99.90
2899;DHT22;1459;50.864;6.438;2022-07-23T10:13:15;21.60;99.90
2899;DHT22;1459;50.864;6.438;2022-07-23T10:16:01;21.50;99.90
2899;DHT22;1459;50.864;6.438;2022-07-23T10:18:30;21.60;99.90
2899;DHT22;1459;50.864;6.438;2022-07-23T10:20:58;21.60;99.90
2899;DHT22;1459;50.864;6.438;2022-07-23T10:23:39;21.70;99.90
2899;DHT22;1459;50.864;6.438;2022-07-23T10:26:24;21.70;99.90
2899;DHT22;1459;50.864;6.438;2022-07-23T10:29:04;21.70;99.90
2899;DHT22;1459;50.864;6.438;2022-07-23T10:31:43;21.80;99.90
2899;DHT22;1459;50.864;6.438;2022-07-23T10:34:24;21.90;99.90
2899;DHT22;1459;50.864;6.438;2022-07-23T10:36:56;21.80;99.90
2899;DHT22;1459;50.864;6.438;2022-07-23T10:39:27;21.80;99.90
2899;DHT22;1459;50.864;6.438;2022-07-23T10:42:09;21.90;99.90
2899;DHT22;1459;50.864;6.438;2022-07-23T10:44:41;21.90;99.90
2899;DHT22;1459;50.864;6.438;2022-07-23T10:47:10;22.00;99.90
2899;DHT22;1459;50.864;6.438;2022-07-23T10:49:54;22.10;99.90
2899;DHT22;1459;50.864;6.438;2022-07-23T10:52:41;22.20;99.90
2899;DHT22;1459;50.864;6.438;2022-07-23T10:58:12;22.40;99.90
2899;DHT22;1459;50.864;6.438;2022-07-23T11:00:43;22.50;99.90
2899;DHT22;1459;50.864;6.438;2022-07-23T11:03:30;22.60;99.90
2899;DHT22;1459;50.864;6.438;2022-07-23T11:05:58;22.60;99.90
2899;DHT22;1459;50.864;6.438;2022-07-23T11:08:26;22.70;99.90
2899;DHT22;1459;50.864;6.438;2022-07-23T11:10:56;22.70;99.90
2899;DHT22;1459;50.864;6.438;2022-07-23T11:13:46;22.70;99.90
2899;DHT22;1459;50.864;6.438;2022-07-23T11:16:16;22.90;99.90
2899;DHT22;1459;50.864;6.438;2022-07-23T11:19:02;22.90;99.90
2899;DHT22;1459;50.864;6.438;2022-07-23T11:21:46;23.00;99.90
2899;DHT22;1459;50.864;6.438;2022-07-23T11:24:18;23.00;99.90
2899;DHT22;1459;50.864;6.438;2022-07-23T11:27:00;23.10;99.90
2899;DHT22;1459;50.864;6.438;2022-07-23T11:29:47;23.10;99.90
2899;DHT22;1459;50.864;6.438;2022-07-23T11:32:35;23.20;99.90
2899;DHT22;1459;50.864;6.438;2022-07-23T11:35:19;23.20;99.90
2899;DHT22;1459;50.864;6.438;2022-07-23T11:37:47;23.20;99.90
2899;DHT22;1459;50.864;6.438;2022-07-23T11:42:53;23.40;99.90
2899;DHT22;1459;50.864;6.438;2022-07-23T11:45:22;23.50;99.90
2899;DHT22;1459;50.864;6.438;2022-07-23T11:47:50;23.60;99.90
2899;DHT22;1459;50.864;6.438;2022-07-23T11:50:18;23.80;99.90
2899;DHT22;1459;50.864;6.438;2022-07-23T11:52:45;23.90;99.90
2899;DHT22;1459;50.864;6.438;2022-07-23T11:55:12;24.00;99.90
2899;DHT22;1459;50.864;6.438;2022-07-23T11:57:42;24.20;99.90
2899;DHT22;1459;50.864;6.438;2022-07-23T12:00:13;24.30;99.90
2899;DHT22;1459;50.864;6.438;2022-07-23T12:02:43;24.30;99.90
2899;DHT22;1459;50.864;6.438;2022-07-23T12:05:13;24.20;99.90
2899;DHT22;1459;50.864;6.438;2022-07-23T12:07:42;24.20;99.90
2899;DHT22;1459;50.864;6.438;2022-07-23T12:10:17;24.30;99.90
2899;DHT22;1459;50.864;6.438;2022-07-23T12:12:47;24.30;99.90
2899;DHT22;1459;50.864;6.438;2022-07-23T12:15:17;24.40;99.90
2899;DHT22;1459;50.864;6.438;2022-07-23T12:17:48;24.40;99.90
2899;DHT22;1459;50.864;6.438;2022-07-23T12:20:18;24.40;99.90
2899;DHT22;1459;50.864;6.438;2022-07-23T12:27:45;24.80;99.90
2899;DHT22;1459;50.864;6.438;2022-07-23T12:30:21;25.00;99.90
2899;DHT22;1459;50.864;6.438;2022-07-23T12:35:21;25.20;99.90
2899;DHT22;1459;50.864;6.438;2022-07-23T12:37:50;25.20;99.90
2899;DHT22;1459;50.864;6.438;2022-07-23T12:40:28;25.20;99.90
2899;DHT22;1459;50.864;6.438;2022-07-23T12:42:57;25.20;99.90
2899;DHT22;1459;50.864;6.438;2022-07-23T12:45:25;25.20;99.90
2899;DHT22;1459;50.864;6.438;2022-07-23T12:48:05;25.20;99.90
2899;DHT22;1459;50.864;6.438;2022-07-23T12:50:42;25.20;99.90
2899;DHT22;1459;50.864;6.438;2022-07-23T12:53:15;25.20;99.90
2899;DHT22;1459;50.864;6.438;2022-07-23T12:55:44;25.20;99.90
2899;DHT22;1459;50.864;6.438;2022-07-23T12:58:13;25.20;99.90
2899;DHT22;1459;50.864;6.438;2022-07-23T13:00:56;25.30;99.90
2899;DHT22;1459;50.864;6.438;2022-07-23T13:03:27;25.40;99.90
2899;DHT22;1459;50.864;6.438;2022-07-23T13:05:56;25.40;99.90
2899;DHT22;1459;50.864;6.438;2022-07-23T13:08:26;25.50;99.90
2899;DHT22;1459;50.864;6.438;2022-07-23T13:10:54;25.40;99.90
2899;DHT22;1459;50.864;6.438;2022-07-23T13:13:23;25.50;99.90
2899;DHT22;1459;50.864;6.438;2022-07-23T13:15:51;25.50;99.90
2899;DHT22;1459;50.864;6.438;2022-07-23T13:18:19;25.50;99.90
2899;DHT22;1459;50.864;6.438;2022-07-23T13:20:49;25.60;99.90
2899;DHT22;1459;50.864;6.438;2022-07-23T13:23:17;25.60;99.90
2899;DHT22;1459;50.864;6.438;2022-07-23T13:25:44;25.70;99.90
2899;DHT22;1459;50.864;6.438;2022-07-23T13:30:40;25.80;99.90
2899;DHT22;1459;50.864;6.438;2022-07-23T13:33:08;25.90;99.90
2899;DHT22;1459;50.864;6.438;2022-07-23T13:35:36;26.00;99.90
2899;DHT22;1459;50.864;6.438;2022-07-23T13:38:06;26.10;99.90
2899;DHT22;1459;50.864;6.438;2022-07-23T13:40:35;26.10;99.90
2899;DHT22;1459;50.864;6.438;2022-07-23T13:43:04;26.20;99.90
2899;DHT22;1459;50.864;6.438;2022-07-23T13:45:32;26.40;99.90
2899;DHT22;1459;50.864;6.438;2022-07-23T13:47:59;26.50;99.90
2899;DHT22;1459;50.864;6.438;2022-07-23T13:50:26;26.70;99.90
2899;DHT22;1459;50.864;6.438;2022-07-23T15:11:47;39.30;59.50
2899;DHT22;1459;50.864;6.438;2022-07-23T15:14:16;40.20;51.00
2899;DHT22;1459;50.864;6.438;2022-07-23T15:16:43;40.20;50.80
2899;DHT22;1459;50.864;6.438;2022-07-23T15:19:10;40.20;50.00
2899;DHT22;1459;50.864;6.438;2022-07-23T15:21:39;40.50;49.40
2899;DHT22;1459;50.864;6.438;2022-07-23T15:24:06;40.70;49.10
2899;DHT22;1459;50.864;6.438;2022-07-23T15:29:01;41.60;45.90
2899;DHT22;1459;50.864;6.438;2022-07-23T15:31:29;41.80;46.70
2899;DHT22;1459;50.864;6.438;2022-07-23T15:33:56;41.80;45.30
2899;DHT22;1459;50.864;6.438;2022-07-23T15:36:23;41.60;44.70
2899;DHT22;1459;50.864;6.438;2022-07-23T15:38:51;41.00;42.70
2899;DHT22;1459;50.864;6.438;2022-07-23T15:41:18;40.50;43.90
2899;DHT22;1459;50.864;6.438;2022-07-23T15:43:48;40.50;42.90
2899;DHT22;1459;50.864;6.438;2022-07-23T15:46:16;40.10;42.60
2899;DHT22;1459;50.864;6.438;2022-07-23T15:48:43;39.70;42.10
2899;DHT22;1459;50.864;6.438;2022-07-23T15:51:11;40.10;42.50
2899;DHT22;1459;50.864;6.438;2022-07-23T15:53:38;39.90;42.50
2899;DHT22;1459;50.864;6.438;2022-07-23T15:56:07;39.60;42.20
2899;DHT22;1459;50.864;6.438;2022-07-23T15:58:34;39.50;41.90
2899;DHT22;1459;50.864;6.438;2022-07-23T16:01:01;39.60;41.70
2899;DHT22;1459;50.864;6.438;2022-07-23T16:03:29;39.50;42.00
2899;DHT22;1459;50.864;6.438;2022-07-23T16:05:56;39.10;42.60
2899;DHT22;1459;50.864;6.438;2022-07-23T16:08:23;38.60;43.30
2899;DHT22;1459;50.864;6.438;2022-07-23T16:10:50;38.40;44.90
2899;DHT22;1459;50.864;6.438;2022-07-23T16:13:19;38.40;45.60
2899;DHT22;1459;50.864;6.438;2022-07-23T16:15:46;38.60;45.30
2899;DHT22;1459;50.864;6.438;2022-07-23T16:18:14;38.50;44.70
2899;DHT22;1459;50.864;6.438;2022-07-23T16:20:45;38.60;44.50
2899;DHT22;1459;50.864;6.438;2022-07-23T16:23:12;39.10;44.30
2899;DHT22;1459;50.864;6.438;2022-07-23T16:25:38;39.60;43.70
2899;DHT22;1459;50.864;6.438;2022-07-23T16:28:11;40.00;43.00
2899;DHT22;1459;50.864;6.438;2022-07-23T16:30:40;40.30;42.90
2899;DHT22;1459;50.864;6.438;2022-07-23T16:33:07;40.70;42.40
2899;DHT22;1459;50.864;6.438;2022-07-23T16:35:34;40.80;41.40
2899;DHT22;1459;50.864;6.438;2022-07-23T16:38:03;40.60;41.70
2899;DHT22;1459;50.864;6.438;2022-07-23T16:40:32;40.20;41.10
2899;DHT22;1459;50.864;6.438;2022-07-23T16:42:59;39.60;41.40
2899;DHT22;1459;50.864;6.438;2022-07-23T16:45:26;39.50;41.50
2899;DHT22;1459;50.864;6.438;2022-07-23T16:47:56;39.30;41.70
2899;DHT22;1459;50.864;6.438;2022-07-23T16:50:23;39.50;42.30
2899;DHT22;1459;50.864;6.438;2022-07-23T16:52:50;39.80;42.10
2899;DHT22;1459;50.864;6.438;2022-07-23T16:55:17;39.80;42.10
2899;DHT22;1459;50.864;6.438;2022-07-23T16:57:44;39.50;41.60
2899;DHT22;1459;50.864;6.438;2022-07-23T17:00:12;39.30;42.20
2899;DHT22;1459;50.864;6.438;2022-07-23T17:02:40;39.30;42.30
2899;DHT22;1459;50.864;6.438;2022-07-23T17:05:09;39.10;42.10
2899;DHT22;1459;50.864;6.438;2022-07-23T17:07:36;38.70;42.10
2899;DHT22;1459;50.864;6.438;2022-07-23T17:10:05;38.50;42.30
2899;DHT22;1459;50.864;6.438;2022-07-23T17:12:32;38.20;43.10
2899;DHT22;1459;50.864;6.438;2022-07-23T17:15:00;38.20;42.60
2899;DHT22;1459;50.864;6.438;2022-07-23T17:17:27;37.90;42.20
2899;DHT22;1459;50.864;6.438;2022-07-23T17:19:54;38.00;42.90
2899;DHT22;1459;50.864;6.438;2022-07-23T17:22:22;38.30;42.50
2899;DHT22;1459;50.864;6.438;2022-07-23T17:24:49;38.50;41.90
2899;DHT22;1459;50.864;6.438;2022-07-23T17:27:16;39.10;42.40
2899;DHT22;1459;50.864;6.438;2022-07-23T17:29:43;39.50;42.10
2899;DHT22;1459;50.864;6.438;2022-07-23T17:32:10;40.00;42.70
2899;DHT22;1459;50.864;6.438;2022-07-23T17:34:37;40.30;41.50
2899;DHT22;1459;50.864;6.438;2022-07-23T17:37:04;40.40;41.40
2899;DHT22;1459;50.864;6.438;2022-07-23T17:39:33;40.70;41.00
2899;DHT22;1459;50.864;6.438;2022-07-23T17:42:00;40.50;40.40
2899;DHT22;1459;50.864;6.438;2022-07-23T17:44:27;40.20;40.30
2899;DHT22;1459;50.864;6.438;2022-07-23T17:46:54;40.00;40.50
2899;DHT22;1459;50.864;6.438;2022-07-23T17:49:21;40.10;41.80
2899;DHT22;1459;50.864;6.438;2022-07-23T17:51:48;40.00;41.20
2899;DHT22;1459;50.864;6.438;2022-07-23T17:54:15;39.70;41.30
2899;DHT22;1459;50.864;6.438;2022-07-23T17:56:44;39.40;41.50